Not logged in
PANGAEA.
Data Publisher for Earth & Environmental Science

Baika, Sidi; Tagabou, Mohamed (2026): Radiosonde measurements from station Tamanrasset (2026-01) [dataset]. National Meteorological Office of Algeria, PANGAEA, https://doi.org/10.1594/PANGAEA.993050

Always quote citation above when using data! You can download the citation in several formats below.

Published: 2026-03-13DOI registered: 2026-04-11

RIS CitationBibTeX Citation ShareShow MapGoogle Earth

Other version:
Baika, Sidi (2026): BSRN Station-to-archive file for station Tamanrasset (2026-01) [dataset]. ftp://ftp.bsrn.awi.de/tam/tam0126.dat.gz
Coverage:
Latitude: 22.790300 * Longitude: 5.529200
Date/Time Start: 2026-01-01T00:00:00 * Date/Time End: 2026-01-31T00:00:00
Minimum ALTITUDE: m * Maximum ALTITUDE: 23742 m
Event(s):
TAM (Tamanrasset) * Latitude: 22.790300 * Longitude: 5.529200 * Date/Time: 2000-03-01T00:00:00 * Elevation: 1385.0 m * Location: Algeria * Method/Device: Monitoring station (MONS) * Comment: BSRN station no: 42; Surface type: desert, rock; Topography type: flat, rural; Horizon: doi:10.1594/PANGAEA.669526; Station scientist: Sidi BAIKA (s.baika@meteo.dz)
Comment:
Start location: Tamanrasset; Distance from radiation site: 10 km
Parameter(s):
#NameShort NameUnitPrincipal InvestigatorMethod/DeviceComment
DATE/TIMEDate/TimeBaika, SidiGeocode
ALTITUDEAltitudemBaika, SidiGeocode
Pressure, at given altitudePPPPhPaBaika, SidiRadiosonde, Vaisala, RS92
Temperature, airTTT°CBaika, SidiRadiosonde, Vaisala, RS92
Dew/frost pointTdTdTd°CBaika, SidiRadiosonde, Vaisala, RS92
Wind directiondddegBaika, SidiRadiosonde, Vaisala, RS92
Wind speedffm/sBaika, SidiRadiosonde, Vaisala, RS92
Status:
Curation Level: Enhanced curation (CurationLevelC)
Size:
3745 data points

Data

Download dataset as tab-delimited text — use the following character encoding:


Date/Time

Altitude [m]

PPPP [hPa]

TTT [°C]

TdTdTd [°C]

dd [deg]

ff [m/s]
2026-01-01T00:00000.00.000
2026-01-01T00:0013698678.223.000
2026-01-01T00:00150085414.4-7.8997
2026-01-01T00:00153485014.2-7.81007
2026-01-01T00:0023037758.0-10.01003
2026-01-01T00:0025007576.4-10.31142
2026-01-01T00:0040006302.6-25.73157
2026-01-01T00:004388600-0.1-27.92658
2026-01-01T00:005500521-7.6-51.027810
2026-01-01T00:007000428-20.3-51.526413
2026-01-01T00:007488400-24.6-53.224913
2026-01-01T00:009000324-35.6-57.526826
2026-01-01T00:0010744250-47.6-69.326836
2026-01-01T00:0011000241-47.3-71.727041
2026-01-01T00:0013000176-59.3-76.026762
2026-01-01T00:0014005150-63.7-82.926262
2026-01-01T00:0015000127-68.8-87.526853
2026-01-01T00:0016425100-74.7-91.326747
2026-01-01T00:001700091-77.0-91.526535
2026-01-01T00:001770980-75.6-89.525024
2026-01-01T00:001849170-70.7-91.225413
2026-01-01T00:001900064-71.1-90.725617
2026-01-01T00:002050050-65.4-92.127521
2026-01-01T00:002200039-62.0-91.924716
2026-01-01T00:002367030-58.3-89.924412
2026-01-02T00:00136986610.426.0601
2026-01-02T00:00150085312.8-7.0835
2026-01-02T00:00152785012.7-7.1885
2026-01-02T00:0022987759.2-14.71582
2026-01-02T00:0025007567.3-13.51421
2026-01-02T00:004000629-0.1-32.32139
2026-01-02T00:004369600-2.5-39.92318
2026-01-02T00:005500519-8.8-45.226011
2026-01-02T00:007000426-19.7-37.424526
2026-01-02T00:007466400-23.6-39.924329
2026-01-02T00:009000323-34.0-58.524835
2026-01-02T00:0010746250-44.3-70.226257
2026-01-02T00:0011000241-45.3-66.526364
2026-01-02T00:0013000176-62.3-68.625866
2026-01-02T00:0013994150-64.1-82.025850
2026-01-02T00:0015000127-69.6-85.224348
2026-01-02T00:0016408100-72.2-90.925938
2026-01-02T00:001700091-72.1-89.526336
2026-01-02T00:001772880-70.9-88.926125
2026-01-02T00:001851870-71.9-89.526119
2026-01-02T00:001900065-70.2-90.226717
2026-01-02T00:002053650-63.4-91.826118
2026-01-02T00:002200039-62.0-91.924716
2026-01-02T00:002370130-59.9-90.03085
2026-01-03T00:00136986711.421.01201
2026-01-03T00:00150085415.3-7.91605
2026-01-03T00:00153785015.1-8.01685
2026-01-03T00:00231677512.5-4.827514
2026-01-03T00:00250075810.8-4.027514
2026-01-03T00:0040006301.8-35.625713
2026-01-03T00:004397600-0.1-37.525313
2026-01-03T00:005500522-8.2-35.726815
2026-01-03T00:007000428-19.7-45.425416
2026-01-03T00:007497400-23.3-52.126018
2026-01-03T00:009000324-35.5-58.426621
2026-01-03T00:0010757250-46.5-58.326951
2026-01-03T00:0011000241-47.6-54.826554
2026-01-03T00:0013000176-57.3-80.026450
2026-01-03T00:0014010150-60.1-87.527346
2026-01-03T00:0015000128-66.5-89.428234
2026-01-03T00:0016459100-72.8-91.626534
2026-01-03T00:001700091-70.8-92.227822
2026-01-03T00:001777180-74.0-91.525919
2026-01-03T00:001854670-75.8-90.925415
2026-01-03T00:001900065-70.9-91.625117
2026-01-03T00:002056450-63.1-92.22576
2026-01-03T00:002200040-61.6-93.01946
2026-01-03T00:002372730-57.2-90.7273
2026-01-04T00:00136986611.218.0102
2026-01-04T00:00150085318.7-9.22178
2026-01-04T00:00153285018.7-9.12189
2026-01-04T00:00231477512.6-8.624012
2026-01-04T00:00250075810.9-9.024212
2026-01-04T00:004000630-2.5-4.226623
2026-01-04T00:004389600-5.8-7.826626
2026-01-04T00:005500521-6.4-49.425520
2026-01-04T00:007000428-18.2-48.827722
2026-01-04T00:007502400-22.1-47.828022
2026-01-04T00:009000325-33.4-64.526425
2026-01-04T00:0010777250-47.8-68.226730
2026-01-04T00:0011000242-48.5-69.326835
2026-01-04T00:0013000178-53.3-80.926837
2026-01-04T00:0014066150-61.4-84.626639
2026-01-04T00:0015000129-68.7-86.326738
2026-01-04T00:0016485100-75.8-89.724929
2026-01-04T00:001700091-77.8-91.126034
2026-01-04T00:001776680-78.8-92.026225
2026-01-04T00:001853970-71.9-89.626118
2026-01-04T00:001900065-68.8-89.521810
2026-01-04T00:002056350-62.7-89.92113
2026-01-04T00:002200040-61.2-89.21922
2026-01-04T00:002374230-59.0-88.31284
2026-01-05T00:00136986514.722.01303
2026-01-05T00:00150085219.6-5.32104
2026-01-05T00:00152285020.3-4.22165
2026-01-05T00:00230877513.5-5.32279
2026-01-05T00:00250075811.7-5.721911
2026-01-05T00:004000631-0.7-4.626518
2026-01-05T00:004394600-3.9-5.626216
2026-01-05T00:005500521-11.3-12.726722
2026-01-05T00:007000427-20.0-25.825132
2026-01-05T00:007486400-23.2-31.023935
2026-01-05T00:009000324-33.5-51.624348
2026-01-05T00:0010774250-44.7-70.524941
2026-01-05T00:0010777250-47.8-68.226730
2026-01-05T00:0011000242-45.1-71.924940
2026-01-05T00:0013000178-54.0-80.925033
2026-01-05T00:0014080150-60.8-84.924729
2026-01-05T00:0015000129-67.5-86.723927
2026-01-05T00:0016501100-76.2-90.126829
2026-01-05T00:001700092-76.7-91.527523
2026-01-05T00:001778680-76.5-91.623019
2026-01-05T00:001856170-72.8-89.92759
2026-01-05T00:001900065-73.2-89.825311
2026-01-05T00:002056350-68.0-90.11866
2026-01-05T00:002200040-60.5-90.1805
2026-01-06T00:00136986516.821.0401
2026-01-06T00:00150085219.4-2.22284
2026-01-06T00:00152085019.5-2.32294
2026-01-06T00:00230777514.1-4.222817
2026-01-06T00:00250075712.4-4.323215
2026-01-06T00:004000630-1.6-6.024720
2026-01-06T00:004391600-4.8-5.724821
2026-01-06T00:005500520-10.3-11.126227
2026-01-06T00:007000427-21.2-39.624438
2026-01-06T00:007470400-23.6-36.724139
2026-01-06T00:009000324-30.3-35.826146
2026-01-06T00:0010779250-44.9-49.525453
2026-01-06T00:0011000242-47.0-51.125454
2026-01-06T00:0013000177-58.0-75.026344
2026-01-06T00:0014033150-59.6-77.725041
2026-01-06T00:0015000128-66.7-82.624940
2026-01-06T00:0016467100-75.4-87.625831
2026-01-06T00:001700091-77.0-89.025829
2026-01-06T00:001775080-76.3-88.524327
2026-01-06T00:001852970-68.6-85.22427
2026-01-06T00:001900065-69.7-85.61778
2026-01-06T00:002055650-65.3-83.82166
2026-01-06T00:002200040-62.2-83.21227
2026-01-06T00:002370530-60.9-83.0989
2026-01-07T00:00136986817.237.03403
2026-01-07T00:00150085516.43.23118
2026-01-07T00:00155285016.03.33109
2026-01-07T00:00233177512.53.727617
2026-01-07T00:00250076011.33.427019
2026-01-07T00:004000632-0.5-6.423317
2026-01-07T00:004418600-2.2-5.622122
2026-01-07T00:005500523-7.5-9.523726
2026-01-07T00:007000430-17.7-23.023135
2026-01-07T00:007532400-21.4-27.723338
2026-01-07T00:009000327-31.8-35.724433
2026-01-07T00:0010831250-46.3-52.323540
2026-01-07T00:0011000244-47.8-52.723740
2026-01-07T00:0013000178-59.6-76.122946
2026-01-07T00:0014082150-59.6-80.823939
2026-01-07T00:0015000129-66.8-85.524735
2026-01-07T00:0016523100-76.0-88.423624
2026-01-07T00:001700092-74.3-89.822524
2026-01-07T00:001780980-78.4-90.725019
2026-01-07T00:001859070-72.4-88.530411
2026-01-07T00:001900065-72.5-87.92118
2026-01-07T00:002059950-65.0-88.01429
2026-01-07T00:002200040-64.5-88.3948
2026-01-07T00:002373430-60.2-86.9489
2026-01-08T00:00136987014.633.0112
2026-01-08T00:00150085716.6-0.4945
2026-01-08T00:00157085016.2-0.3956
2026-01-08T00:00235077512.81.02566
2026-01-08T00:00250076111.60.82657
2026-01-08T00:0040006353.5-10.827413
2026-01-08T00:0044526002.5-15.824716
2026-01-08T00:005500526-6.1-12.824215
2026-01-08T00:007000432-16.8-33.124425
2026-01-08T00:007580400-20.1-31.524229
2026-01-08T00:009000329-31.2-45.925430
2026-01-08T00:0010878250-46.0-48.923340
2026-01-08T00:0011000245-47.1-50.823239
2026-01-08T00:0013000179-62.9-68.922549
2026-01-08T00:0014119150-60.0-84.724245
2026-01-08T00:0015000130-66.3-86.924142
2026-01-08T00:0016550100-75.7-90.426627
2026-01-08T00:001700093-74.8-91.327418
2026-01-08T00:001784480-71.7-90.922510
2026-01-08T00:001862370-76.2-90.820410
2026-01-08T00:001900066-74.7-90.62257
2026-01-08T00:002060950-66.7-91.2848
2026-01-08T00:002200040-63.7-90.91028
2026-01-08T00:002372230-64.1-91.6816
2026-01-09T00:00136986912.038.03402
2026-01-09T00:00150085616.60.83166
2026-01-09T00:00155985016.30.93236
2026-01-09T00:00233977512.8-5.734411
2026-01-09T00:00250076011.9-3.533210
2026-01-09T00:0040006343.5-14.22179
2026-01-09T00:0044436000.3-18.52319
2026-01-09T00:005500525-6.6-19.222617
2026-01-09T00:007000431-17.0-19.724325
2026-01-09T00:007563400-21.0-23.824127
2026-01-09T00:009000328-31.7-41.524533
2026-01-09T00:0010851250-47.8-52.423040
2026-01-09T00:0011000244-48.4-57.222941
2026-01-09T00:0013000179-57.2-77.323754
2026-01-09T00:0014099150-62.7-84.824452
2026-01-09T00:0015000129-69.2-86.524248
2026-01-09T00:0016527100-69.9-90.925415
2026-01-09T00:001700092-73.9-90.922016
2026-01-09T00:001782380-77.1-92.423716
2026-01-09T00:001859570-74.9-91.923011
2026-01-09T00:001900065-73.3-90.72072
2026-01-09T00:002057450-70.9-91.53084
2026-01-09T00:002200040-63.1-91.5893
2026-01-09T00:002369030-63.2-91.3435
2026-01-09T00:002370130-59.9-90.03085
2026-01-10T00:00136986716.316.0502
2026-01-10T00:00150085418.4-3.753
2026-01-10T00:00154185018.4-3.0204
2026-01-10T00:00232777514.3-1.91762
2026-01-10T00:00250075912.9-1.52013
2026-01-10T00:0040006322.2-10.221314
2026-01-10T00:004422600-1.8-10.821815
2026-01-10T00:005500523-10.3-11.625018
2026-01-10T00:007000429-18.6-19.524027
2026-01-10T00:007517400-22.5-25.023331
2026-01-10T00:009000326-33.3-38.123334
2026-01-10T00:0010790250-49.2-53.823739
2026-01-10T00:0011000242-50.3-53.524242
2026-01-10T00:0013000177-57.8-78.023761
2026-01-10T00:0014035150-63.0-84.424855
2026-01-10T00:0015000128-65.7-88.025945
2026-01-10T00:0016481100-71.9-90.824730
2026-01-10T00:001700092-74.9-91.024725
2026-01-10T00:001777880-75.4-91.726417
2026-01-10T00:001855870-72.3-90.62299
2026-01-10T00:001900065-72.4-90.524614
2026-01-10T00:002055150-68.5-90.52184
2026-01-10T00:002200039-64.2-91.13232
2026-01-10T00:002366030-64.5-91.42673
2026-01-11T00:00136986813.324.0503
2026-01-11T00:00150085518.6-6.163
2026-01-11T00:00154985018.3-6.363
2026-01-11T00:00233077511.9-9.82926
2026-01-11T00:00250075910.4-7.62775
2026-01-11T00:004000631-2.4-7.423711
2026-01-11T00:004400600-5.3-8.822914
2026-01-11T00:005500521-12.3-17.522824
2026-01-11T00:007000427-19.4-55.824527
2026-01-11T00:007487400-23.2-63.824331
2026-01-11T00:009000324-35.4-59.524735
2026-01-11T00:0010748250-47.1-68.225343
2026-01-11T00:0011000241-48.6-66.425245
2026-01-11T00:0013000177-57.7-80.024160
2026-01-11T00:0014017150-62.9-83.625355
2026-01-11T00:0015000128-66.7-88.925641
2026-01-11T00:0016462100-72.6-89.825432
2026-01-11T00:001700091-73.0-90.925628
2026-01-11T00:001776780-72.5-91.426628
2026-01-11T00:001855370-71.4-90.928311
2026-01-11T00:001900065-71.4-90.825511
2026-01-11T00:002056550-67.5-91.33254
2026-01-11T00:002200040-63.3-92.72426
2026-01-11T00:002367030-58.3-89.924412
2026-01-11T00:002368930-62.2-91.93157
2026-01-12T00:0013698689.122.092
2026-01-12T00:00150085516.8-7.71084
2026-01-12T00:00154885016.5-7.91134
2026-01-12T00:00232677511.0-7.22603
2026-01-12T00:0025007599.3-7.52583
2026-01-12T00:004000630-3.9-9.121311
2026-01-12T00:004389600-3.7-48.722711
2026-01-12T00:005500521-7.1-49.226020
2026-01-12T00:007000428-19.7-45.126022
2026-01-12T00:007493400-23.4-50.526319
2026-01-12T00:009000324-35.6-61.126326
2026-01-12T00:0010754250-48.5-60.626139
2026-01-12T00:0011000241-50.0-64.226040
2026-01-12T00:0013000176-57.0-79.825441
2026-01-12T00:0014012150-60.8-84.225651
2026-01-12T00:0015000128-65.0-87.627040
2026-01-12T00:0016471100-73.1-90.025832
2026-01-12T00:001700091-76.0-90.626526
2026-01-12T00:001775980-75.9-90.627924
2026-01-12T00:001854470-70.4-89.725315
2026-01-12T00:001900065-70.7-89.926312
2026-01-12T00:002055350-70.1-90.72627
2026-01-12T00:002200039-63.0-90.72588
2026-01-12T00:002369030-60.1-89.22797
2026-01-13T00:00136986815.718.01002
2026-01-13T00:00150085515.5-6.6915
2026-01-13T00:00154585015.8-6.6937
2026-01-13T00:00232277511.4-6.13171
2026-01-13T00:0025007599.9-5.11661
2026-01-13T00:004000631-0.1-21.422613
2026-01-13T00:004397600-3.3-12.823115
2026-01-13T00:005500522-7.6-21.023518
2026-01-13T00:007000428-20.9-23.024420
2026-01-13T00:007495400-22.6-25.224022
2026-01-13T00:009000324-33.3-36.525234
2026-01-13T00:0010754250-48.5-60.626139
2026-01-13T00:0010772250-47.2-51.424947
2026-01-13T00:0011000242-49.2-53.325046
2026-01-13T00:0013000176-59.0-77.623257
2026-01-13T00:0014018150-57.2-86.423946
2026-01-13T00:0015000128-64.2-89.324040
2026-01-13T00:0016485100-73.0-90.923820
2026-01-13T00:001700092-73.6-91.127619
2026-01-13T00:001778580-75.3-90.830011
2026-01-13T00:001855770-74.4-90.624116
2026-01-13T00:001900065-73.3-90.52719
2026-01-13T00:002053950-68.7-91.62005
2026-01-13T00:002200039-62.2-91.52862
2026-01-14T00:00136986615.820.01105
2026-01-14T00:00150085316.4-5.61089
2026-01-14T00:00153185016.2-5.71079
2026-01-14T00:00230777511.1-8.51694
2026-01-14T00:0025007579.5-8.32085
2026-01-14T00:0040006300.5-25.919517
2026-01-14T00:004385600-1.9-24.722515
2026-01-14T00:005500520-10.3-24.721918
2026-01-14T00:007000426-22.9-23.722929
2026-01-14T00:007461400-25.3-51.023130
2026-01-14T00:009000322-35.6-38.122739
2026-01-14T00:0010720250-48.4-52.923754
2026-01-14T00:0011000240-50.9-56.923955
2026-01-14T00:0013000176-56.5-82.122160
2026-01-14T00:0013981150-59.7-89.323655
2026-01-14T00:0015000127-63.2-92.023739
2026-01-14T00:0016450100-72.7-91.922226
2026-01-14T00:001700091-72.6-93.920624
2026-01-14T00:001776280-72.4-92.820813
2026-01-14T00:001854970-72.0-92.12049
2026-01-14T00:001900065-72.8-92.02178
2026-01-14T00:002055450-67.7-92.92342
2026-01-14T00:002200039-63.9-94.92997
2026-01-14T00:002369230-60.3-94.72628
2026-01-15T00:00136986610.722.03101
2026-01-15T00:00150085315.9-7.02613
2026-01-15T00:00153185015.6-7.12624
2026-01-15T00:0023067759.9-8.42477
2026-01-15T00:0025007578.1-8.82436
2026-01-15T00:0040006290.4-34.227423
2026-01-15T00:004376600-0.6-36.524825
2026-01-15T00:005500520-8.3-50.726924
2026-01-15T00:007000427-20.6-53.927026
2026-01-15T00:007472400-24.1-56.626828
2026-01-15T00:009000323-36.8-63.127229
2026-01-15T00:0010713250-50.0-67.824639
2026-01-15T00:0011000239-51.4-70.524944
2026-01-15T00:0013000175-58.9-83.524448
2026-01-15T00:0013953150-62.4-86.325743
2026-01-15T00:0015000126-67.4-87.924746
2026-01-15T00:0016414100-67.7-88.025632
2026-01-15T00:001700091-69.9-89.124024
2026-01-15T00:001774480-70.3-90.422819
2026-01-15T00:001853970-69.5-90.827812
2026-01-15T00:001900065-71.9-91.12567
2026-01-15T00:002054650-63.4-91.22764
2026-01-15T00:002200039-65.2-90.92949
2026-01-15T00:002367030-63.7-92.02992
2026-01-16T00:0013698657.626.0203
2026-01-16T00:00150085213.7-8.73115
2026-01-16T00:00151685013.6-8.53115
2026-01-16T00:00228877511.7-34.82112
2026-01-16T00:00250075610.9-41.12281
2026-01-16T00:0040006291.8-35.226712
2026-01-16T00:004382600-1.0-28.127514
2026-01-16T00:005500521-8.4-40.326716
2026-01-16T00:007000427-19.4-51.825118
2026-01-16T00:007485400-23.3-55.425120
2026-01-16T00:009000323-36.0-60.324223
2026-01-16T00:0010735250-48.7-69.225229
2026-01-16T00:0011000240-50.6-72.325329
2026-01-16T00:0013000175-60.3-79.625535
2026-01-16T00:0013959150-62.7-85.125632
2026-01-16T00:0015000127-66.1-88.624836
2026-01-16T00:0016403100-70.0-88.125326
2026-01-16T00:001700090-70.0-91.224322
2026-01-16T00:001772880-70.7-90.224416
2026-01-16T00:001851670-71.5-90.423313
2026-01-16T00:001900065-68.5-91.72397
2026-01-16T00:002053050-66.9-92.52595
2026-01-16T00:002200039-64.2-92.61603
2026-01-16T00:002366630-60.4-92.42637
2026-01-17T00:0013698638.522.0502
2026-01-17T00:00149685014.8-7.72713
2026-01-17T00:00150085014.8-7.72703
2026-01-17T00:0022697758.8-11.623111
2026-01-17T00:0025007547.2-11.224515
2026-01-17T00:0040006270.5-33.223318
2026-01-17T00:004346600-1.7-36.023421
2026-01-17T00:005500518-9.9-41.823823
2026-01-17T00:007000425-20.4-53.923828
2026-01-17T00:007437400-23.1-53.924130
2026-01-17T00:009000321-35.6-45.823937
2026-01-17T00:0010708250-46.3-66.725949
2026-01-17T00:0011000239-48.8-66.826050
2026-01-17T00:0013000175-61.0-76.827052
2026-01-17T00:0013933150-64.1-87.625049
2026-01-17T00:0015000126-66.7-89.824745
2026-01-17T00:0016380100-68.0-90.725826
2026-01-17T00:001700090-69.0-90.624219
2026-01-17T00:001770880-72.3-91.222219
2026-01-17T00:001849770-71.0-91.024117
2026-01-17T00:001900064-71.9-91.624613
2026-01-17T00:002051050-66.1-92.721410
2026-01-17T00:002200039-62.7-93.22416
2026-01-17T00:002365630-60.3-93.02479
2026-01-18T00:0013698598.322.0302
2026-01-18T00:00146085015.0-9.02483
2026-01-18T00:00150084615.1-9.12514
2026-01-18T00:00223577510.5-10.822716
2026-01-18T00:0025007518.2-11.022617
2026-01-18T00:004000624-0.5-29.723829
2026-01-18T00:004308600-2.8-32.123830
2026-01-18T00:005500515-11.1-41.523633
2026-01-18T00:007000422-20.5-52.624634
2026-01-18T00:007394400-23.6-54.825237
2026-01-18T00:009000319-36.0-60.724941
2026-01-18T00:0010661250-45.7-65.026161
2026-01-18T00:0010708250-46.3-66.725949
2026-01-18T00:0011000238-48.2-63.826062
2026-01-18T00:0013000174-62.8-77.825754
2026-01-18T00:0013885150-67.4-78.825461
2026-01-18T00:0015000125-67.8-88.126254
2026-01-18T00:0016320100-67.4-90.226139
2026-01-18T00:001700089-69.6-90.525234
2026-01-18T00:001764780-74.0-90.924335
2026-01-18T00:001843970-71.5-89.824936
2026-01-18T00:001900064-67.1-89.923529
2026-01-18T00:002049050-67.3-90.420512
2026-01-18T00:002200039-61.1-89.725112
2026-01-19T00:0013698596.944.03204
2026-01-19T00:0014548506.3-2.93147
2026-01-19T00:0015008455.9-3.03169
2026-01-19T00:0022047752.5-13.128414
2026-01-19T00:0025007475.7-36.526919
2026-01-19T00:0040006210.7-33.124230
2026-01-19T00:004279600-0.5-42.024832
2026-01-19T00:005500514-8.9-44.324733
2026-01-19T00:007000422-19.3-47.425637
2026-01-19T00:007388400-23.0-48.825937
2026-01-19T00:009000319-34.0-56.925547
2026-01-19T00:0010660250-48.7-62.326150
2026-01-19T00:0011000237-51.4-65.726449
2026-01-19T00:0013000173-63.7-77.026159
2026-01-19T00:0013881150-60.9-85.626045
2026-01-19T00:0015000125-66.7-88.225342
2026-01-19T00:0016343100-70.5-89.724946
2026-01-19T00:001700089-74.7-90.825745
2026-01-19T00:001764380-75.2-90.426537
2026-01-19T00:001842870-68.6-88.926327
2026-01-19T00:001900064-63.5-89.324927
2026-01-19T00:002048850-63.5-89.225618
2026-01-19T00:002200039-64.1-90.627521
2026-01-19T00:002366030-58.2-87.23129
2026-01-20T00:0013698617.239.03304
2026-01-20T00:0014738506.6-4.93158
2026-01-20T00:0015008476.4-4.93199
2026-01-20T00:0022317755.8-17.01523
2026-01-20T00:0025007503.8-19.21563
2026-01-20T00:004000622-2.9-43.226023
2026-01-20T00:004282600-4.3-31.425627
2026-01-20T00:005500513-12.4-42.525135
2026-01-20T00:007000420-20.2-41.023747
2026-01-20T00:007361400-22.3-24.323951
2026-01-20T00:009000318-36.0-40.625152
2026-01-20T00:0010633250-45.4-51.325277
2026-01-20T00:0010660250-48.7-62.326150
2026-01-20T00:0011000237-47.2-59.125379
2026-01-20T00:0013000173-63.5-71.725281
2026-01-20T00:0013866150-63.4-85.225568
2026-01-20T00:0015000125-67.5-88.325555
2026-01-20T00:0016309100-70.4-89.225949
2026-01-20T00:001700089-72.1-90.125536
2026-01-20T00:001762880-68.0-89.824632
2026-01-20T00:001843070-66.8-88.525924
2026-01-20T00:001900064-67.5-88.726721
2026-01-20T00:002047550-61.3-88.624526
2026-01-20T00:002200039-58.6-88.726619
2026-01-21T00:0013698634.429.082
2026-01-21T00:0014928507.6-10.53534
2026-01-21T00:0015008497.7-10.63534
2026-01-21T00:0022497754.5-24.13269
2026-01-21T00:0025007513.4-20.932110
2026-01-21T00:004000623-4.2-42.229016
2026-01-21T00:004295600-6.3-45.928720
2026-01-21T00:005500513-11.5-44.427928
2026-01-21T00:007000420-24.4-42.727036
2026-01-21T00:007352400-27.4-46.227036
2026-01-21T00:009000316-39.5-61.726146
2026-01-21T00:0010578250-46.9-69.125571
2026-01-21T00:0010660250-48.7-62.326150
2026-01-21T00:0011000235-49.8-73.325668
2026-01-21T00:0013000171-61.3-80.924972
2026-01-21T00:0013822150-61.6-85.525463
2026-01-21T00:0015000124-65.8-88.125056
2026-01-21T00:0016299100-65.7-89.124836
2026-01-21T00:001700089-67.5-88.825736
2026-01-21T00:001764480-68.6-88.825230
2026-01-21T00:001844070-69.4-89.125831
2026-01-21T00:001900064-65.9-89.327721
2026-01-21T00:002050350-57.2-87.924022
2026-01-21T00:002200039-61.2-89.626817
2026-01-21T00:002368330-55.8-87.827312
2026-01-21T00:002368930-62.2-91.93157
2026-01-22T00:0013698656.023.03602
2026-01-22T00:00150085110.1-11.73456
2026-01-22T00:00151285010.1-11.83466
2026-01-22T00:0022777757.8-18.43078
2026-01-22T00:0025007548.8-17.82774
2026-01-22T00:0040006271.7-27.830815
2026-01-22T00:004357600-0.1-22.930114
2026-01-22T00:005500519-10.4-26.730718
2026-01-22T00:007000425-19.9-42.930623
2026-01-22T00:007452400-23.3-47.929523
2026-01-22T00:009000322-35.9-58.828621
2026-01-22T00:0010705250-49.1-64.032218
2026-01-22T00:0011000239-51.2-65.230417
2026-01-22T00:0013000174-57.6-84.326738
2026-01-22T00:0013931150-62.5-88.026732
2026-01-22T00:0015000126-69.2-89.026830
2026-01-22T00:0016353100-71.4-89.125933
2026-01-22T00:001700090-70.3-89.325937
2026-01-22T00:001767580-71.1-90.227533
2026-01-22T00:001847570-65.6-91.525816
2026-01-22T00:001900064-65.4-91.525122
2026-01-22T00:002051950-66.6-91.825218
2026-01-22T00:002200039-61.3-92.025019
2026-01-22T00:002368330-55.8-87.827312
2026-01-22T00:002368430-57.0-91.62567
2026-01-23T00:0013698669.015.01203
2026-01-23T00:00150085313.0-12.71624
2026-01-23T00:00152585013.0-12.61714
2026-01-23T00:00229477510.2-13.02345
2026-01-23T00:00250075610.7-16.92406
2026-01-23T00:0040006302.3-16.72949
2026-01-23T00:0043896000.2-21.928411
2026-01-23T00:005500521-6.8-30.32689
2026-01-23T00:007000428-17.9-44.72508
2026-01-23T00:007504400-22.3-47.92359
2026-01-23T00:009000325-34.7-54.924811
2026-01-23T00:0010767250-48.7-69.524418
2026-01-23T00:0011000241-49.8-73.624622
2026-01-23T00:0013000176-60.9-78.825039
2026-01-23T00:0013987150-66.1-85.625044
2026-01-23T00:0015000127-69.2-87.226035
2026-01-23T00:0016403100-71.6-88.126125
2026-01-23T00:001700090-72.3-88.625523
2026-01-23T00:001771680-72.3-89.425519
2026-01-23T00:001850470-70.7-91.026519
2026-01-23T00:001900064-66.8-91.927513
2026-01-23T00:002054850-66.1-91.724814
2026-01-23T00:002200039-60.9-94.227815
2026-01-23T00:002369130-57.4-91.72576
2026-01-24T00:00136986510.015.03203
2026-01-24T00:00150085113.4-7.928810
2026-01-24T00:00151485013.4-8.028811
2026-01-24T00:0022827757.7-6.327917
2026-01-24T00:0025007557.1-11.627816
2026-01-24T00:0040006271.1-36.726518
2026-01-24T00:004356600-1.1-33.926221
2026-01-24T00:005500519-10.0-36.224624
2026-01-24T00:007000425-21.8-38.925725
2026-01-24T00:007443400-25.7-44.425424
2026-01-24T00:009000321-35.8-67.324934
2026-01-24T00:0010704250-45.7-69.325050
2026-01-24T00:0010767250-48.7-69.524418
2026-01-24T00:0011000239-48.2-70.025250
2026-01-24T00:0013000175-58.1-83.024352
2026-01-24T00:0013968150-62.3-86.124343
2026-01-24T00:0015000127-68.3-88.024940
2026-01-24T00:0016404100-72.9-90.025832
2026-01-24T00:001700090-73.2-89.824625
2026-01-24T00:001771080-72.5-89.024824
2026-01-24T00:001849470-68.9-91.525925
2026-01-24T00:001900064-63.2-91.528717
2026-01-24T00:002054250-64.8-92.222419
2026-01-24T00:002200039-61.3-92.024816
2026-01-25T00:0013698684.011.01102
2026-01-25T00:00150085414.2-21.6181
2026-01-25T00:00154285013.8-21.681
2026-01-25T00:0023117757.2-15.02183
2026-01-25T00:0025007575.6-19.52742
2026-01-25T00:004000629-0.5-30.631717
2026-01-25T00:004370600-3.1-31.031520
2026-01-25T00:005500519-10.7-40.328622
2026-01-25T00:007000425-22.8-52.527927
2026-01-25T00:007441400-26.7-54.128226
2026-01-25T00:009000321-38.1-64.527137
2026-01-25T00:0010670250-48.9-68.926445
2026-01-25T00:0011000238-51.2-68.126350
2026-01-25T00:0013000174-57.7-83.226754
2026-01-25T00:0013931150-60.2-85.426950
2026-01-25T00:0015000126-66.7-88.126443
2026-01-25T00:0016385100-69.4-91.525937
2026-01-25T00:001700090-73.3-91.126336
2026-01-25T00:001770580-69.2-90.425732
2026-01-25T00:001850370-67.7-89.828023
2026-01-25T00:001900065-68.0-89.826914
2026-01-25T00:002054250-62.3-89.326619
2026-01-25T00:002200039-63.3-90.526516
2026-01-25T00:002368430-57.0-91.62567
2026-01-25T00:002369530-57.8-88.13018
2026-01-26T00:0013698695.59.0402
2026-01-26T00:00150085613.6-18.71952
2026-01-26T00:00155885013.3-18.92023
2026-01-26T00:0023267758.4-22.43052
2026-01-26T00:0025007597.3-23.53112
2026-01-26T00:0040006310.1-32.784
2026-01-26T00:004404600-3.3-40.0134
2026-01-26T00:005500521-12.3-56.72611
2026-01-26T00:007000426-23.4-60.9106
2026-01-26T00:007461400-24.9-61.030314
2026-01-26T00:009000322-36.5-67.228415
2026-01-26T00:0010707250-48.4-68.727536
2026-01-26T00:0011000239-48.0-71.226939
2026-01-26T00:0013000176-56.1-82.827442
2026-01-26T00:0013989150-61.2-86.227439
2026-01-26T00:0015000127-65.4-89.427536
2026-01-26T00:0016435100-71.6-90.827025
2026-01-26T00:001700091-75.6-91.928229
2026-01-26T00:001773480-71.1-90.030617
2026-01-26T00:001852670-71.5-89.827516
2026-01-26T00:001900065-68.2-90.426612
2026-01-26T00:002055450-65.6-91.024214
2026-01-26T00:002200040-61.3-91.725713
2026-01-26T00:002371330-57.8-89.121013
2026-01-27T00:0013698705.88.0602
2026-01-27T00:00150085614.5-17.92022
2026-01-27T00:00156185014.0-17.82052
2026-01-27T00:00233277513.0-25.43341
2026-01-27T00:00250076012.1-31.32662
2026-01-27T00:0040006332.8-40.6161
2026-01-27T00:004431600-0.7-43.0433
2026-01-27T00:005500524-9.3-50.844
2026-01-27T00:007000429-20.7-59.729810
2026-01-27T00:007520400-24.8-61.528312
2026-01-27T00:009000325-34.8-39.127121
2026-01-27T00:0010778250-48.7-53.826638
2026-01-27T00:0011000242-50.7-54.327441
2026-01-27T00:0013000177-55.8-81.326928
2026-01-27T00:0014040150-62.2-85.025832
2026-01-27T00:0015000128-67.1-88.026929
2026-01-27T00:0016467100-73.1-90.426418
2026-01-27T00:001700091-74.3-90.525419
2026-01-27T00:001776780-74.6-90.527115
2026-01-27T00:001854870-71.5-89.724810
2026-01-27T00:001900065-69.5-90.326811
2026-01-27T00:002056850-66.3-91.224210
2026-01-27T00:002200040-64.8-91.025913
2026-01-27T00:002372630-54.8-86.92067
2026-01-28T00:0013698696.09.0302
2026-01-28T00:00150085615.7-18.23273
2026-01-28T00:00155785015.8-18.13283
2026-01-28T00:00233577513.2-40.61833
2026-01-28T00:00250076012.3-38.82061
2026-01-28T00:0040006333.3-44.81465
2026-01-28T00:0044326000.7-46.31421
2026-01-28T00:005500524-8.2-36.02622
2026-01-28T00:007000430-21.2-30.01724
2026-01-28T00:007527400-23.2-30.22545
2026-01-28T00:009000325-35.7-48.225611
2026-01-28T00:0010775250-50.1-66.025327
2026-01-28T00:0011000242-51.6-66.925629
2026-01-28T00:0013000177-56.0-83.425639
2026-01-28T00:0014021150-60.7-85.425839
2026-01-28T00:0015000128-66.4-87.525831
2026-01-28T00:0016465100-72.5-91.024021
2026-01-28T00:001700091-72.8-91.626121
2026-01-28T00:001777680-73.0-90.927613
2026-01-28T00:001856070-72.2-90.426013
2026-01-28T00:001900065-71.4-90.028013
2026-01-28T00:002057350-66.4-90.722011
2026-01-28T00:002200040-63.4-91.028210
2026-01-28T00:002372930-58.8-89.43297
2026-01-29T00:0013698679.28.072
2026-01-29T00:00150085416.1-18.4832
2026-01-29T00:00154085016.2-18.5682
2026-01-29T00:00231977512.9-27.41833
2026-01-29T00:00250075811.1-27.81834
2026-01-29T00:0040006324.4-45.21515
2026-01-29T00:0044156001.3-48.01666
2026-01-29T00:005500523-7.3-29.12032
2026-01-29T00:007000429-18.7-28.52007
2026-01-29T00:007523400-22.8-30.52607
2026-01-29T00:009000325-35.2-37.023415
2026-01-29T00:0010773250-50.1-59.524416
2026-01-29T00:0011000241-51.6-62.525512
2026-01-29T00:0013000177-56.2-81.924244
2026-01-29T00:0014031150-59.8-87.024635
2026-01-29T00:0015000128-65.8-88.325333
2026-01-29T00:0016484100-72.6-90.626924
2026-01-29T00:001700092-74.0-90.725217
2026-01-29T00:001778780-74.1-90.524715
2026-01-29T00:001856770-72.5-90.32998
2026-01-29T00:001900065-71.6-90.62806
2026-01-29T00:002057150-65.2-92.42247
2026-01-29T00:002200040-64.5-92.62748
2026-01-29T00:002371630-61.9-90.9161
2026-01-30T00:0013698668.48.0362
2026-01-30T00:00150085316.2-18.63279
2026-01-30T00:00153085016.1-18.532710
2026-01-30T00:00230877511.5-23.73176
2026-01-30T00:00250075710.4-24.92947
2026-01-30T00:0040006300.7-25.41904
2026-01-30T00:004389600-1.3-17.72402
2026-01-30T00:005500521-9.3-27.33474
2026-01-30T00:007000427-19.1-45.31315
2026-01-30T00:007485400-23.7-42.12012
2026-01-30T00:009000323-36.8-47.62318
2026-01-30T00:0010728250-49.7-66.94416
2026-01-30T00:0011000240-50.7-70.45311
2026-01-30T00:0013000176-56.3-83.824116
2026-01-30T00:0013994150-57.8-87.025515
2026-01-30T00:0015000128-62.5-87.526419
2026-01-30T00:0016483100-69.7-90.428513
2026-01-30T00:001700092-71.0-91.125712
2026-01-30T00:001779880-74.6-90.926614
2026-01-30T00:001857570-72.8-90.227313
2026-01-30T00:001900065-70.3-90.02656
2026-01-30T00:002057650-67.4-91.22624
2026-01-30T00:002200040-64.5-92.62748
2026-01-31T00:0013698659.919.0103
2026-01-31T00:00150085217.9-10.3422
2026-01-31T00:00151685018.0-10.5482
2026-01-31T00:00229777512.4-21.9965
2026-01-31T00:00250075611.2-21.81382
2026-01-31T00:0040006303.1-31.829812
2026-01-31T00:0043936001.0-25.828815
2026-01-31T00:005500522-6.8-36.727818
2026-01-31T00:007000428-18.5-47.128823
2026-01-31T00:007507400-22.8-49.829024
2026-01-31T00:009000325-35.5-52.629221
2026-01-31T00:0010763250-48.7-60.228622
2026-01-31T00:0011000241-50.4-67.427520
2026-01-31T00:0013000176-59.0-85.326930
2026-01-31T00:0013989150-59.6-86.628522
2026-01-31T00:0015000127-63.2-89.628222
2026-01-31T00:0016463100-69.8-90.526222
2026-01-31T00:001700091-72.7-91.528124
2026-01-31T00:001777580-74.2-91.226912
2026-01-31T00:001855470-73.5-91.029111
2026-01-31T00:001900065-73.4-90.925212
2026-01-31T00:002055950-64.6-91.023310
2026-01-31T00:002200040-64.5-92.62748